Time;durP1;ratioP1;P1;durP2;ratioP2;P2;SDS_P1;SDS_P2;PMS_P1;PMS_P2;Temp;Humidity;BMP_temperature;BMP_pressure;BME280_temperature;BME280_humidity;BME280_pressure;Samples;Min_cycle;Max_cycle;Signal;HPM_P1;HPM_P2
2023/10/31 00:00:56;;;;;;;4.03;3.10;;;13.40;99.90;;;;;;5015381;28;20455;-82
2023/10/31 00:03:23;;;;;;;3.87;3.30;;;13.40;99.90;;;;;;5009423;28;20480;-84
2023/10/31 00:05:50;;;;;;;4.43;3.60;;;13.30;99.90;;;;;;5015794;28;20454;-83
2023/10/31 00:08:18;;;;;;;13.80;4.23;;;13.30;99.90;;;;;;5015621;28;20445;-83
2023/10/31 00:10:46;;;;;;;4.03;3.63;;;13.10;99.90;;;;;;5017301;28;20441;-82
2023/10/31 00:13:12;;;;;;;5.93;4.20;;;13.10;99.90;;;;;;5018344;28;20576;-83
2023/10/31 00:15:39;;;;;;;6.10;5.13;;;13.00;99.90;;;;;;5019422;28;20977;-80
2023/10/31 00:18:06;;;;;;;6.33;5.73;;;12.90;99.90;;;;;;5015982;28;20515;-82
2023/10/31 00:20:33;;;;;;;7.33;6.73;;;12.70;99.90;;;;;;5022855;28;20449;-83
2023/10/31 00:23:00;;;;;;;6.43;5.83;;;12.60;99.90;;;;;;5020975;28;20453;-79
2023/10/31 00:25:28;;;;;;;6.83;6.23;;;12.50;99.90;;;;;;5024302;28;20450;-81
2023/10/31 00:27:55;;;;;;;7.43;6.63;;;12.40;99.90;;;;;;5017220;28;20520;-82
2023/10/31 00:30:22;;;;;;;6.47;5.90;;;12.30;99.90;;;;;;5018647;28;20463;-83
2023/10/31 00:32:48;;;;;;;5.70;5.00;;;12.30;99.90;;;;;;5011133;28;20461;-82
2023/10/31 00:35:16;;;;;;;4.40;4.00;;;12.20;99.90;;;;;;5019898;28;21008;-83
2023/10/31 00:37:43;;;;;;;3.97;3.57;;;12.20;99.90;;;;;;5018782;28;21051;-82
2023/10/31 00:40:11;;;;;;;8.40;3.73;;;12.20;99.90;;;;;;5020510;28;20458;-83
2023/10/31 00:42:41;;;;;;;3.47;3.17;;;12.10;99.90;;;;;;5020384;28;20462;-80
2023/10/31 00:45:09;;;;;;;3.63;2.93;;;12.10;99.90;;;;;;5021482;28;20506;-81
2023/10/31 00:47:36;;;;;;;2.90;2.70;;;12.10;99.90;;;;;;5017992;28;20534;-82
2023/10/31 00:50:03;;;;;;;2.53;2.33;;;12.00;99.90;;;;;;5017797;28;20523;-83
2023/10/31 00:52:32;;;;;;;3.00;2.70;;;12.00;99.90;;;;;;5019199;28;20545;-83
2023/10/31 00:54:59;;;;;;;7.73;4.03;;;12.00;99.90;;;;;;5018179;28;20487;-81
2023/10/31 00:57:26;;;;;;;5.20;2.37;;;12.00;99.90;;;;;;5015809;28;20470;-81
2023/10/31 00:59:54;;;;;;;2.73;2.53;;;12.00;99.90;;;;;;5017489;28;20487;-81
2023/10/31 01:02:20;;;;;;;3.00;2.70;;;11.90;99.90;;;;;;5018820;28;20452;-81
2023/10/31 01:04:47;;;;;;;2.43;2.23;;;12.00;99.90;;;;;;5018470;28;20852;-79
2023/10/31 01:07:16;;;;;;;2.50;2.30;;;12.00;99.90;;;;;;5020071;28;20868;-80
2023/10/31 01:09:43;;;;;;;4.43;2.57;;;12.00;99.90;;;;;;5019179;28;20877;-82
2023/10/31 01:12:11;;;;;;;3.57;3.10;;;12.00;99.90;;;;;;5018245;28;20464;-82
2023/10/31 01:14:37;;;;;;;2.63;2.37;;;12.00;99.90;;;;;;5019840;28;21041;-80
2023/10/31 01:17:06;;;;;;;4.93;2.50;;;11.80;99.90;;;;;;5020452;28;20533;-80
2023/10/31 01:19:33;;;;;;;2.70;2.43;;;11.90;99.90;;;;;;5020217;28;20494;-81
2023/10/31 01:22:00;;;;;;;2.97;2.37;;;11.80;99.90;;;;;;5017126;28;20460;-79
2023/10/31 01:24:27;;;;;;;2.33;2.00;;;11.80;99.90;;;;;;5014221;28;20486;-80
2023/10/31 01:26:55;;;;;;;3.17;2.00;;;11.70;99.90;;;;;;5019076;28;20456;-81
2023/10/31 01:29:21;;;;;;;2.33;1.83;;;11.80;99.90;;;;;;5017507;28;20451;-78
2023/10/31 01:31:48;;;;;;;2.67;1.80;;;11.80;99.90;;;;;;5017395;28;20458;-80
2023/10/31 01:34:16;;;;;;;1.83;1.37;;;11.80;99.90;;;;;;5018380;28;20501;-81
2023/10/31 01:36:43;;;;;;;1.77;1.50;;;11.80;99.90;;;;;;5016996;28;20465;-81
2023/10/31 01:39:10;;;;;;;3.20;1.80;;;11.80;99.90;;;;;;5015469;28;20461;-79
2023/10/31 01:41:37;;;;;;;2.03;1.30;;;11.80;99.90;;;;;;5018681;28;20449;-82
2023/10/31 01:44:05;;;;;;;1.87;1.23;;;11.80;99.90;;;;;;5019358;28;20494;-80
2023/10/31 01:46:32;;;;;;;2.40;1.90;;;11.80;99.90;;;;;;5018197;28;20466;-81
2023/10/31 01:48:59;;;;;;;2.43;1.20;;;11.70;99.90;;;;;;5016686;28;20457;-80
2023/10/31 01:51:28;;;;;;;4.00;1.80;;;11.70;99.90;;;;;;5019042;28;20828;-80
2023/10/31 01:53:56;;;;;;;3.00;1.40;;;11.70;99.90;;;;;;5018397;28;20494;-79
2023/10/31 01:56:23;;;;;;;3.00;1.60;;;11.70;99.90;;;;;;5017311;28;20467;-79
2023/10/31 01:58:50;;;;;;;2.40;1.60;;;11.80;99.90;;;;;;5018008;28;20477;-81
2023/10/31 02:01:21;;;;;;;2.83;1.90;;;11.70;99.90;;;;;;5019341;28;20450;-80
2023/10/31 02:03:48;;;;;;;4.33;2.30;;;11.70;99.90;;;;;;5018739;28;20491;-80
2023/10/31 02:06:15;;;;;;;3.83;2.13;;;11.70;99.90;;;;;;5019921;28;20551;-81
2023/10/31 02:08:43;;;;;;;3.30;3.00;;;11.70;99.90;;;;;;5018803;28;20975;-78
2023/10/31 02:11:10;;;;;;;3.57;3.07;;;11.80;99.90;;;;;;5018363;28;20538;-80
2023/10/31 02:13:38;;;;;;;4.67;3.33;;;11.80;99.90;;;;;;5019671;28;20481;-81
2023/10/31 02:16:05;;;;;;;4.63;2.70;;;11.70;99.90;;;;;;5021685;28;20460;-80
2023/10/31 02:18:33;;;;;;;7.57;3.80;;;11.70;99.90;;;;;;5018836;28;20462;-80
2023/10/31 02:21:00;;;;;;;5.90;4.83;;;11.70;99.90;;;;;;5018783;28;20906;-81
2023/10/31 02:23:28;;;;;;;5.73;3.87;;;11.80;99.90;;;;;;5018284;28;20479;-81
2023/10/31 02:25:58;;;;;;;5.17;4.23;;;11.90;99.90;;;;;;5018004;28;20551;-81
2023/10/31 02:28:27;;;;;;;8.10;5.07;;;11.90;99.90;;;;;;5018547;28;20564;-78
2023/10/31 02:30:54;;;;;;;5.07;4.50;;;11.80;99.90;;;;;;5015767;28;20455;-79
2023/10/31 02:33:21;;;;;;;4.73;4.23;;;11.90;99.90;;;;;;5016441;28;20479;-78
2023/10/31 02:35:48;;;;;;;5.50;4.50;;;11.80;99.90;;;;;;5017688;28;20562;-79
2023/10/31 02:38:15;;;;;;;5.73;5.10;;;11.90;99.90;;;;;;5017354;28;20470;-81
2023/10/31 02:40:43;;;;;;;5.60;5.10;;;11.90;99.90;;;;;;5018585;28;20461;-81
2023/10/31 02:43:10;;;;;;;5.63;4.97;;;11.80;99.90;;;;;;5020307;28;20503;-81
2023/10/31 02:45:37;;;;;;;5.10;4.23;;;11.70;99.90;;;;;;5013351;28;20487;-78
2023/10/31 02:48:04;;;;;;;6.50;4.73;;;11.80;99.90;;;;;;5020082;28;20553;-80
2023/10/31 02:50:36;;;;;;;7.80;5.90;;;11.80;99.90;;;;;;5020950;28;21007;-81
2023/10/31 02:53:03;;;;;;;5.83;5.30;;;11.80;99.90;;;;;;5018616;28;20542;-81
2023/10/31 02:55:30;;;;;;;5.67;5.13;;;11.70;99.90;;;;;;5019813;28;20486;-81
2023/10/31 02:57:58;;;;;;;5.20;4.70;;;11.60;99.90;;;;;;5017486;28;20458;-80
2023/10/31 03:00:25;;;;;;;5.20;4.70;;;11.60;99.90;;;;;;5019017;28;20521;-80
2023/10/31 03:02:52;;;;;;;5.80;4.80;;;11.60;99.90;;;;;;5018048;28;20463;-80
2023/10/31 03:05:19;;;;;;;5.00;4.50;;;11.50;99.90;;;;;;5023751;28;20523;-82
2023/10/31 03:07:46;;;;;;;4.73;4.30;;;11.50;99.90;;;;;;5022992;28;20479;-81
2023/10/31 03:10:13;;;;;;;5.60;4.67;;;11.60;99.90;;;;;;5022998;28;20460;-80
2023/10/31 03:12:42;;;;;;;8.80;5.10;;;11.60;99.90;;;;;;5021512;28;20533;-80
2023/10/31 03:15:11;;;;;;;5.63;4.97;;;11.50;99.90;;;;;;5021266;28;20534;-80
2023/10/31 03:17:37;;;;;;;4.30;3.90;;;11.60;99.90;;;;;;5020709;28;20504;-81
2023/10/31 03:20:05;;;;;;;8.57;6.00;;;11.60;99.90;;;;;;5020299;28;20466;-81
2023/10/31 03:22:32;;;;;;;8.43;6.10;;;11.60;99.90;;;;;;5018412;28;20463;-82
2023/10/31 03:24:59;;;;;;;6.47;5.80;;;11.40;99.90;;;;;;5016296;28;20478;-80
2023/10/31 03:27:25;;;;;;;7.93;6.50;;;11.40;99.90;;;;;;5015213;28;20578;-80
2023/10/31 03:29:52;;;;;;;8.67;7.43;;;11.40;99.90;;;;;;5014846;28;20458;-80
2023/10/31 03:32:20;;;;;;;11.30;8.13;;;11.40;99.90;;;;;;5016848;28;20458;-81
2023/10/31 03:34:47;;;;;;;11.07;8.83;;;11.40;99.90;;;;;;5015320;28;20504;-80
2023/10/31 03:37:14;;;;;;;10.73;7.90;;;11.30;99.90;;;;;;5015242;28;20563;-79
2023/10/31 03:39:41;;;;;;;9.57;7.63;;;11.30;99.90;;;;;;5015526;28;20534;-80
2023/10/31 03:42:10;;;;;;;10.70;8.80;;;11.40;99.90;;;;;;5017144;28;20548;-82
2023/10/31 03:44:37;;;;;;;13.87;7.67;;;11.30;99.90;;;;;;5018152;28;20482;-81
2023/10/31 03:47:04;;;;;;;9.20;7.60;;;11.40;99.90;;;;;;5019554;28;20455;-81
2023/10/31 03:49:32;;;;;;;9.93;8.40;;;11.30;99.90;;;;;;5020664;28;20457;-83
2023/10/31 03:51:59;;;;;;;10.80;8.10;;;11.30;99.90;;;;;;5020237;28;20829;-82
2023/10/31 03:54:25;;;;;;;13.07;9.17;;;11.30;99.90;;;;;;5020290;28;20488;-81
2023/10/31 03:56:52;;;;;;;12.93;9.77;;;11.30;99.90;;;;;;5019549;28;20464;-83
2023/10/31 03:59:19;;;;;;;12.80;7.47;;;11.30;99.90;;;;;;5013374;28;20546;-83
2023/10/31 04:01:46;;;;;;;12.93;9.17;;;11.30;99.90;;;;;;5019574;28;20463;-81
2023/10/31 04:04:14;;;;;;;10.30;7.17;;;11.30;99.90;;;;;;5018853;28;20489;-82
2023/10/31 04:06:43;;;;;;;8.73;6.13;;;11.30;99.90;;;;;;5022412;28;20475;-82
2023/10/31 04:09:10;;;;;;;8.70;6.40;;;11.40;99.90;;;;;;5020424;28;20457;-82
2023/10/31 04:11:39;;;;;;;6.77;5.20;;;11.40;99.90;;;;;;5021879;28;20454;-83
2023/10/31 04:14:06;;;;;;;7.07;5.80;;;11.40;99.90;;;;;;5019782;28;20867;-81
2023/10/31 04:16:33;;;;;;;7.37;5.80;;;11.30;99.90;;;;;;5019566;28;20457;-84
2023/10/31 04:18:59;;;;;;;7.57;5.80;;;11.30;99.90;;;;;;5017761;28;20530;-83
2023/10/31 04:21:26;;;;;;;7.03;6.33;;;11.20;99.90;;;;;;5019147;28;20479;-81
2023/10/31 04:23:54;;;;;;;9.27;5.70;;;11.20;99.90;;;;;;5018635;28;20485;-84
2023/10/31 04:26:21;;;;;;;7.17;5.97;;;11.20;99.90;;;;;;5019801;28;20968;-82
2023/10/31 04:28:48;;;;;;;10.87;7.03;;;11.20;99.90;;;;;;5016013;28;20950;-81
2023/10/31 04:31:15;;;;;;;9.13;5.90;;;11.20;99.90;;;;;;5018164;28;20454;-82
2023/10/31 04:33:41;;;;;;;7.77;6.50;;;11.30;99.90;;;;;;5017976;28;20470;-83
2023/10/31 04:36:10;;;;;;;6.87;5.30;;;11.30;99.90;;;;;;5017704;28;20497;-82
2023/10/31 04:38:38;;;;;;;8.80;6.60;;;11.30;99.90;;;;;;5017227;28;20463;-83
2023/10/31 04:41:06;;;;;;;8.60;6.03;;;11.30;99.90;;;;;;5017531;28;20466;-83
2023/10/31 04:43:33;;;;;;;6.50;5.47;;;11.30;99.90;;;;;;5018043;28;20477;-81
2023/10/31 04:46:00;;;;;;;6.30;5.30;;;11.30;99.90;;;;;;5017543;28;20454;-82
2023/10/31 04:48:26;;;;;;;6.30;5.17;;;11.30;99.90;;;;;;5016427;28;20451;-82
2023/10/31 04:50:57;;;;;;;6.13;5.20;;;11.40;99.90;;;;;;5017880;28;20454;-82
2023/10/31 04:53:23;;;;;;;7.10;4.80;;;11.30;99.90;;;;;;5017387;28;20482;-81
2023/10/31 04:55:50;;;;;;;6.53;5.20;;;11.30;99.90;;;;;;5017802;28;20523;-81
2023/10/31 04:58:18;;;;;;;8.00;5.60;;;11.20;99.90;;;;;;5016437;28;20463;-83
2023/10/31 05:00:45;;;;;;;9.23;6.30;;;11.30;99.90;;;;;;5017111;28;20942;-83
2023/10/31 05:03:12;;;;;;;8.00;6.57;;;11.30;99.90;;;;;;5015203;28;20487;-82
2023/10/31 05:05:39;;;;;;;6.70;5.97;;;11.30;99.90;;;;;;5017197;28;20469;-82
2023/10/31 05:08:08;;;;;;;9.77;7.40;;;11.30;99.90;;;;;;5016867;28;20457;-81
2023/10/31 05:10:35;;;;;;;8.80;6.13;;;11.30;99.90;;;;;;5017344;28;20568;-82
2023/10/31 05:13:03;;;;;;;8.87;6.10;;;11.30;99.90;;;;;;5019374;28;20461;-83
2023/10/31 05:15:31;;;;;;;9.03;6.27;;;11.30;99.90;;;;;;5018872;28;20505;-83
2023/10/31 05:17:58;;;;;;;8.00;6.00;;;11.30;99.90;;;;;;5018233;28;20454;-81
2023/10/31 05:20:25;;;;;;;9.30;6.20;;;11.30;99.90;;;;;;5019153;28;20877;-80
2023/10/31 05:22:51;;;;;;;8.00;6.30;;;11.30;99.90;;;;;;5019233;28;20480;-81
2023/10/31 05:25:20;;;;;;;9.10;6.73;;;11.30;99.90;;;;;;5019158;28;20850;-81
2023/10/31 05:27:53;;;;;;;6.53;5.53;;;11.30;99.90;;;;;;5018671;28;20550;-80
2023/10/31 05:30:23;;;;;;;7.73;6.47;;;11.30;99.90;;;;;;5022194;28;20472;-82
2023/10/31 05:32:52;;;;;;;7.17;6.47;;;11.30;99.90;;;;;;5019262;28;20834;-81
2023/10/31 05:35:19;;;;;;;18.70;7.53;;;11.30;99.90;;;;;;5016072;28;20486;-83
2023/10/31 05:37:47;;;;;;;9.67;7.43;;;11.20;99.90;;;;;;5018434;28;20524;-81
2023/10/31 05:40:15;;;;;;;9.47;7.47;;;11.20;99.90;;;;;;5018605;28;20529;-80
2023/10/31 05:42:41;;;;;;;9.33;7.03;;;11.20;99.90;;;;;;5019621;28;20473;-81
2023/10/31 05:45:09;;;;;;;10.30;6.70;;;11.20;99.90;;;;;;5011282;28;20478;-82
2023/10/31 05:47:36;;;;;;;10.70;6.97;;;11.20;99.90;;;;;;5018493;28;20548;-82
2023/10/31 05:50:07;;;;;;;8.17;6.77;;;11.20;99.90;;;;;;5015809;28;20465;-85
2023/10/31 05:52:34;;;;;;;9.83;7.50;;;11.20;99.90;;;;;;5010148;28;20456;-84
2023/10/31 05:55:01;;;;;;;11.10;7.30;;;11.20;99.90;;;;;;5011535;28;20501;-83
2023/10/31 05:57:30;;;;;;;10.77;8.37;;;11.20;99.90;;;;;;5013941;28;20548;-83
2023/10/31 05:59:56;;;;;;;12.17;8.60;;;11.20;99.90;;;;;;5016878;28;20451;-83
2023/10/31 06:02:23;;;;;;;11.20;8.10;;;11.20;99.90;;;;;;5018047;28;20449;-83
2023/10/31 06:04:53;;;;;;;14.67;8.90;;;11.20;99.90;;;;;;5011696;28;20473;-83
2023/10/31 06:07:20;;;;;;;15.30;11.03;;;11.20;99.90;;;;;;5014225;28;20456;-82
2023/10/31 06:09:47;;;;;;;15.20;11.40;;;11.20;99.90;;;;;;5011027;28;20459;-80
2023/10/31 06:12:13;;;;;;;14.73;11.53;;;11.20;99.90;;;;;;5011272;28;20468;-83
2023/10/31 06:14:40;;;;;;;12.33;10.30;;;11.20;99.90;;;;;;5011530;28;20473;-81
2023/10/31 06:17:07;;;;;;;17.60;12.00;;;11.30;99.90;;;;;;5014449;28;20442;-82
2023/10/31 06:19:35;;;;;;;15.17;10.87;;;11.30;99.90;;;;;;5010717;28;20847;-82
2023/10/31 06:22:02;;;;;;;16.73;12.13;;;11.40;99.90;;;;;;5004089;28;20484;-81
2023/10/31 06:24:30;;;;;;;13.90;11.23;;;11.30;99.90;;;;;;5011992;28;20469;-82
2023/10/31 06:26:57;;;;;;;14.40;11.20;;;11.30;99.90;;;;;;5012990;28;20446;-82
2023/10/31 06:29:24;;;;;;;14.77;11.20;;;11.30;99.90;;;;;;5011567;28;20453;-82
2023/10/31 06:31:50;;;;;;;20.30;12.73;;;11.40;99.90;;;;;;5012810;28;20457;-82
2023/10/31 06:34:17;;;;;;;13.47;10.90;;;11.40;99.90;;;;;;5008259;28;20477;-81
2023/10/31 06:36:44;;;;;;;14.90;11.47;;;11.40;99.90;;;;;;5010494;28;20497;-82
2023/10/31 06:39:11;;;;;;;23.40;12.90;;;11.40;99.90;;;;;;5012927;28;20447;-81
2023/10/31 06:41:39;;;;;;;14.50;11.20;;;11.40;99.90;;;;;;5011321;28;20449;-82
2023/10/31 06:44:06;;;;;;;17.80;11.60;;;11.40;99.90;;;;;;5011085;28;20547;-80
2023/10/31 06:46:33;;;;;;;15.40;12.67;;;11.40;99.90;;;;;;5014808;28;20487;-82
2023/10/31 06:49:00;;;;;;;15.97;11.13;;;11.40;99.90;;;;;;5012995;28;20456;-80
2023/10/31 06:51:26;;;;;;;17.13;12.60;;;11.40;99.90;;;;;;5014451;28;20459;-80
2023/10/31 06:53:53;;;;;;;15.97;12.10;;;11.40;99.90;;;;;;5013828;28;20475;-80
2023/10/31 06:56:20;;;;;;;16.20;12.20;;;11.40;99.90;;;;;;5014237;28;20488;-81
2023/10/31 06:59:01;;;;;;;16.07;12.63;;;11.40;99.90;;;;;;5014715;28;20825;-81
2023/10/31 07:01:28;;;;;;;14.87;11.93;;;11.40;99.90;;;;;;5013574;28;20455;-81
2023/10/31 07:03:55;;;;;;;13.13;11.37;;;11.40;99.90;;;;;;5013099;28;20603;-82
2023/10/31 07:06:22;;;;;;;14.23;11.33;;;11.40;99.90;;;;;;5013736;28;20449;-81
2023/10/31 07:08:49;;;;;;;14.20;11.83;;;11.40;99.90;;;;;;5011634;28;20828;-79
2023/10/31 07:11:15;;;;;;;14.80;12.13;;;11.50;99.90;;;;;;5012200;28;20474;-81
2023/10/31 07:13:44;;;;;;;14.03;10.50;;;11.50;99.90;;;;;;5012627;28;20482;-81
2023/10/31 07:16:12;;;;;;;12.60;10.47;;;11.60;99.90;;;;;;5013294;28;20498;-81
2023/10/31 07:18:39;;;;;;;14.67;11.37;;;11.60;99.90;;;;;;5012551;28;20858;-80
2023/10/31 07:21:06;;;;;;;13.97;10.93;;;11.60;99.90;;;;;;5012040;28;20461;-80
2023/10/31 07:23:33;;;;;;;12.20;9.10;;;11.70;99.90;;;;;;5012061;28;20489;-81
2023/10/31 07:26:00;;;;;;;15.13;10.03;;;11.70;99.90;;;;;;5013188;28;20456;-81
2023/10/31 07:28:26;;;;;;;13.30;11.00;;;11.70;99.90;;;;;;5012116;28;20473;-83
2023/10/31 07:30:53;;;;;;;12.30;9.37;;;11.70;99.90;;;;;;5013135;28;20545;-80
2023/10/31 07:33:21;;;;;;;14.43;11.80;;;11.70;99.90;;;;;;5006320;28;20542;-82
2023/10/31 07:35:48;;;;;;;10.63;8.67;;;11.80;99.90;;;;;;5013759;28;20483;-83
2023/10/31 07:38:15;;;;;;;14.83;10.13;;;11.80;99.90;;;;;;5012682;28;20569;-81
2023/10/31 07:40:42;;;;;;;10.00;9.00;;;11.70;99.90;;;;;;5014407;28;20459;-81
2023/10/31 07:43:09;;;;;;;11.53;9.17;;;11.80;99.90;;;;;;5012338;28;20482;-80
2023/10/31 07:45:36;;;;;;;9.83;8.30;;;11.80;99.90;;;;;;5014895;28;20458;-83
2023/10/31 07:48:03;;;;;;;8.10;7.30;;;11.90;99.90;;;;;;5013167;28;20467;-81
2023/10/31 07:50:32;;;;;;;9.93;7.50;;;11.80;99.90;;;;;;5012095;28;20451;-82
2023/10/31 07:52:59;;;;;;;10.30;7.90;;;11.80;99.90;;;;;;5013682;28;20459;-83
2023/10/31 07:55:26;;;;;;;9.00;7.77;;;11.90;99.90;;;;;;5013921;28;20471;-82
2023/10/31 07:57:53;;;;;;;9.20;7.53;;;11.90;99.90;;;;;;5014374;28;20833;-82
2023/10/31 08:00:21;;;;;;;7.70;6.77;;;11.90;99.90;;;;;;5014454;28;20501;-82
2023/10/31 08:02:48;;;;;;;9.37;7.90;;;12.00;99.90;;;;;;5013755;28;20831;-81
2023/10/31 08:05:15;;;;;;;10.50;7.40;;;12.00;99.90;;;;;;5014705;28;20466;-82
2023/10/31 08:07:43;;;;;;;7.73;6.93;;;12.00;99.90;;;;;;5013880;28;20451;-82
2023/10/31 08:10:11;;;;;;;9.50;8.07;;;12.10;99.90;;;;;;5014268;28;20465;-79
2023/10/31 08:12:38;;;;;;;11.40;9.10;;;12.10;99.90;;;;;;5015035;28;20461;-82
2023/10/31 08:15:06;;;;;;;10.80;9.70;;;12.10;99.90;;;;;;5014787;28;20470;-80
2023/10/31 08:17:32;;;;;;;9.50;8.60;;;12.00;99.90;;;;;;5015298;28;20577;-81
2023/10/31 08:19:59;;;;;;;11.93;9.60;;;12.10;99.90;;;;;;5015126;28;20446;-82
2023/10/31 08:22:26;;;;;;;11.70;10.03;;;12.10;99.90;;;;;;5009231;28;20466;-82
2023/10/31 08:24:54;;;;;;;12.00;10.80;;;12.10;99.90;;;;;;5006067;28;20472;-81
2023/10/31 08:27:21;;;;;;;13.73;10.13;;;12.10;99.90;;;;;;5013789;28;20444;-79
2023/10/31 08:29:48;;;;;;;13.47;10.33;;;12.20;99.90;;;;;;5013571;28;20439;-82
2023/10/31 08:32:16;;;;;;;10.50;9.37;;;12.10;99.90;;;;;;5012783;28;20457;-79
2023/10/31 08:34:42;;;;;;;14.73;10.60;;;12.10;99.90;;;;;;5016744;28;20479;-80
2023/10/31 08:37:09;;;;;;;11.30;10.20;;;12.10;99.90;;;;;;5017353;28;20486;-79
2023/10/31 08:39:36;;;;;;;10.77;9.67;;;12.10;99.90;;;;;;5013593;28;20456;-79
2023/10/31 08:42:05;;;;;;;10.27;8.70;;;12.10;99.90;;;;;;5015609;28;20446;-79
2023/10/31 08:44:33;;;;;;;11.27;10.13;;;12.10;99.90;;;;;;5016457;28;20555;-79
2023/10/31 08:47:00;;;;;;;10.27;9.20;;;12.10;99.90;;;;;;5013842;28;20972;-78
2023/10/31 08:49:26;;;;;;;11.30;10.10;;;12.20;99.90;;;;;;5012131;28;20475;-77
2023/10/31 08:51:53;;;;;;;9.40;8.50;;;12.10;99.90;;;;;;5016238;28;20477;-80
2023/10/31 08:54:20;;;;;;;9.23;8.33;;;12.20;99.90;;;;;;5016616;28;20842;-80
2023/10/31 08:56:47;;;;;;;10.50;8.83;;;12.20;99.90;;;;;;5015408;28;20500;-80
2023/10/31 08:59:15;;;;;;;13.57;8.77;;;12.20;99.90;;;;;;5012406;28;20554;-79
2023/10/31 09:01:42;;;;;;;9.80;8.57;;;12.10;99.90;;;;;;5012486;28;20534;-79
2023/10/31 09:04:09;;;;;;;8.80;7.77;;;12.30;99.90;;;;;;5014035;28;20870;-80
2023/10/31 09:06:35;;;;;;;8.70;7.80;;;12.30;99.90;;;;;;5015147;28;20461;-77
2023/10/31 09:09:03;;;;;;;10.47;8.20;;;12.30;99.90;;;;;;5013862;28;20577;-80
2023/10/31 09:11:30;;;;;;;11.63;8.00;;;12.30;99.90;;;;;;5016477;28;20454;-79
2023/10/31 09:13:57;;;;;;;9.83;8.90;;;12.30;99.90;;;;;;5016839;28;20472;-81
2023/10/31 09:16:25;;;;;;;8.43;7.53;;;12.30;99.90;;;;;;5016673;28;20500;-82
2023/10/31 09:18:52;;;;;;;8.87;8.07;;;12.40;99.90;;;;;;5016587;28;20454;-80
2023/10/31 09:21:19;;;;;;;9.87;8.20;;;12.30;99.90;;;;;;5015598;28;20463;-79
2023/10/31 09:23:46;;;;;;;9.27;8.40;;;12.50;99.90;;;;;;5012490;28;20487;-77
2023/10/31 09:26:12;;;;;;;8.13;7.30;;;12.50;99.90;;;;;;5013246;28;20460;-79
2023/10/31 09:28:42;;;;;;;11.97;10.70;;;12.60;99.90;;;;;;5013388;28;20462;-80
2023/10/31 09:31:09;;;;;;;10.87;9.27;;;12.60;99.90;;;;;;5016308;28;20522;-79
2023/10/31 09:33:37;;;;;;;8.60;7.63;;;12.70;99.90;;;;;;5015969;28;20486;-82
2023/10/31 09:36:05;;;;;;;8.67;7.60;;;12.50;99.90;;;;;;5014402;28;20489;-79
2023/10/31 09:38:32;;;;;;;8.33;7.10;;;12.50;99.90;;;;;;5014388;28;20466;-80
2023/10/31 09:40:58;;;;;;;10.23;7.60;;;12.60;99.90;;;;;;5014046;28;20461;-79
2023/10/31 09:43:25;;;;;;;8.57;7.77;;;12.60;99.90;;;;;;5013095;28;20486;-77
2023/10/31 09:45:53;;;;;;;8.63;7.37;;;12.50;99.90;;;;;;5014945;28;20459;-80
2023/10/31 09:48:20;;;;;;;8.93;8.03;;;12.50;99.90;;;;;;5015313;28;20458;-78
2023/10/31 09:50:50;;;;;;;7.83;7.00;;;12.50;99.90;;;;;;5014583;28;20457;-78
2023/10/31 09:53:17;;;;;;;8.80;7.00;;;12.60;99.90;;;;;;5017199;28;20479;-79
2023/10/31 09:55:44;;;;;;;7.57;6.87;;;12.70;99.90;;;;;;5014565;28;20473;-79
2023/10/31 09:58:11;;;;;;;6.70;6.10;;;12.80;99.90;;;;;;4997857;28;20500;-79
2023/10/31 10:00:40;;;;;;;7.37;6.20;;;12.80;99.90;;;;;;5015240;28;20515;-78
2023/10/31 10:03:08;;;;;;;6.40;5.83;;;12.90;99.90;;;;;;5013285;28;20956;-80
2023/10/31 10:05:37;;;;;;;5.50;5.00;;;13.00;99.90;;;;;;5006131;28;21107;-78
2023/10/31 10:08:06;;;;;;;5.83;4.93;;;13.00;99.90;;;;;;5014680;28;20535;-79
2023/10/31 10:10:34;;;;;;;10.90;5.80;;;13.00;99.90;;;;;;5015141;28;20470;-80
2023/10/31 10:13:02;;;;;;;7.90;6.23;;;12.90;99.90;;;;;;5015211;28;20891;-78
2023/10/31 10:15:30;;;;;;;8.57;6.80;;;13.00;99.90;;;;;;5012614;28;20499;-80
2023/10/31 10:17:56;;;;;;;5.97;5.47;;;12.90;99.90;;;;;;5011972;28;20591;-78
2023/10/31 10:20:23;;;;;;;6.00;5.40;;;13.00;99.90;;;;;;5014323;28;20469;-79
2023/10/31 10:22:50;;;;;;;7.63;6.83;;;13.00;99.90;;;;;;5011733;28;20451;-80
2023/10/31 10:25:19;;;;;;;11.27;6.97;;;12.80;99.90;;;;;;5014473;28;20848;-79
2023/10/31 10:27:47;;;;;;;8.67;6.30;;;12.80;99.90;;;;;;5012767;28;20682;-79
2023/10/31 10:30:15;;;;;;;8.20;6.17;;;12.80;99.90;;;;;;5012116;28;20465;-80
2023/10/31 10:32:42;;;;;;;9.53;6.43;;;12.80;99.90;;;;;;5013867;28;20453;-79
2023/10/31 10:35:09;;;;;;;8.13;6.80;;;12.80;99.90;;;;;;5015208;28;20467;-81
2023/10/31 10:37:39;;;;;;;8.60;6.23;;;12.70;99.90;;;;;;5009393;28;20517;-80
2023/10/31 10:40:08;;;;;;;8.00;6.63;;;12.80;99.90;;;;;;5005680;28;20462;-78
2023/10/31 10:42:45;;;;;;;8.27;6.60;;;12.90;99.90;;;;;;5015105;28;20466;-79
2023/10/31 10:45:15;;;;;;;6.73;6.07;;;12.90;99.90;;;;;;5013931;28;20860;-80
2023/10/31 10:47:45;;;;;;;8.57;7.00;;;12.90;99.90;;;;;;5014231;28;20564;-81
2023/10/31 10:50:15;;;;;;;9.80;6.33;;;12.90;99.90;;;;;;5013714;28;20506;-79
2023/10/31 10:52:47;;;;;;;10.70;7.40;;;13.00;99.90;;;;;;5013002;28;20555;-79
2023/10/31 10:55:19;;;;;;;8.63;7.10;;;13.10;99.90;;;;;;5014612;28;20454;-80
2023/10/31 10:57:55;;;;;;;8.70;6.50;;;13.10;99.90;;;;;;5013999;28;20574;-80
2023/10/31 11:00:24;;;;;;;7.37;6.53;;;12.90;99.90;;;;;;5006846;28;20453;-80
2023/10/31 11:02:52;;;;;;;10.10;7.83;;;12.90;99.90;;;;;;5006470;28;20466;-78
2023/10/31 11:05:20;;;;;;;10.10;6.57;;;13.00;99.90;;;;;;5008278;28;20450;-80
2023/10/31 11:07:48;;;;;;;8.07;6.97;;;13.00;99.90;;;;;;5012368;28;20440;-80
2023/10/31 11:10:15;;;;;;;10.27;6.60;;;13.10;99.90;;;;;;5014296;28;20537;-80
2023/10/31 11:12:44;;;;;;;9.73;7.63;;;13.10;99.90;;;;;;5014124;28;20457;-80
2023/10/31 11:15:15;;;;;;;9.90;6.87;;;13.10;99.90;;;;;;5014154;28;20480;-80
2023/10/31 11:17:45;;;;;;;10.80;6.70;;;13.10;99.90;;;;;;5013634;28;20487;-79
2023/10/31 11:20:16;;;;;;;10.00;6.90;;;13.10;99.90;;;;;;5012980;28;20459;-78
2023/10/31 11:22:45;;;;;;;10.37;6.07;;;13.10;99.90;;;;;;5014424;28;20458;-79
2023/10/31 11:25:15;;;;;;;8.07;5.57;;;13.10;99.90;;;;;;5005558;28;20467;-78
2023/10/31 11:27:43;;;;;;;5.80;5.20;;;13.20;99.90;;;;;;5013513;28;21027;-79
2023/10/31 11:30:22;;;;;;;9.07;6.03;;;13.40;99.90;;;;;;5013847;28;20895;-80
2023/10/31 11:32:49;;;;;;;5.80;4.90;;;13.40;99.90;;;;;;5014354;28;20447;-79
2023/10/31 11:35:17;;;;;;;7.23;5.37;;;13.40;99.90;;;;;;5014434;28;20451;-78
2023/10/31 11:37:52;;;;;;;10.03;5.30;;;13.50;99.90;;;;;;5014139;28;20492;-78
2023/10/31 11:40:21;;;;;;;8.70;5.00;;;13.50;99.90;;;;;;5015004;28;20477;-79
2023/10/31 11:42:50;;;;;;;6.70;4.97;;;13.60;99.90;;;;;;5013751;28;20852;-79
2023/10/31 11:45:29;;;;;;;10.87;4.50;;;13.70;99.90;;;;;;5014122;28;20480;-79
2023/10/31 11:47:56;;;;;;;7.30;4.03;;;13.60;99.90;;;;;;5013963;28;20453;-82
2023/10/31 11:50:23;;;;;;;4.73;3.50;;;13.70;99.90;;;;;;5015481;28;20511;-76
2023/10/31 11:53:05;;;;;;;6.63;4.13;;;13.60;99.90;;;;;;5014579;28;20908;-79
2023/10/31 11:55:35;;;;;;;5.43;3.67;;;13.60;99.90;;;;;;5014428;28;20449;-77
2023/10/31 11:58:16;;;;;;;8.20;3.30;;;13.60;99.90;;;;;;5013210;28;20523;-79
2023/10/31 12:00:45;;;;;;;4.70;3.27;;;13.90;99.90;;;;;;5014157;28;20518;-79
2023/10/31 12:03:12;;;;;;;5.50;3.33;;;14.10;99.90;;;;;;5006155;28;20494;-78
2023/10/31 12:05:39;;;;;;;4.17;2.90;;;14.30;35.30;;;;;;5015425;28;20449;-80
2023/10/31 12:08:06;;;;;;;5.67;3.17;;;14.30;34.30;;;;;;5016878;28;20450;-80
2023/10/31 12:10:33;;;;;;;4.90;3.10;;;14.30;2.30;;;;;;5017240;28;20774;-81
2023/10/31 12:13:00;;;;;;;4.93;2.67;;;14.30;40.20;;;;;;5018152;28;20447;-81
2023/10/31 12:15:27;;;;;;;4.93;2.20;;;14.30;29.60;;;;;;5018519;28;20462;-80
2023/10/31 12:18:00;;;;;;;7.97;2.97;;;14.30;83.50;;;;;;5015599;28;20782;-78
2023/10/31 12:20:27;;;;;;;5.17;2.70;;;14.10;2.40;;;;;;5017704;28;20459;-80
2023/10/31 12:23:04;;;;;;;6.30;3.20;;;14.00;64.20;;;;;;5016908;28;20457;-80
2023/10/31 12:25:34;;;;;;;5.70;2.27;;;13.90;62.30;;;;;;5013753;28;20460;-80
2023/10/31 12:28:01;;;;;;;5.37;2.73;;;14.00;99.90;;;;;;5014921;28;20482;-80
2023/10/31 12:30:28;;;;;;;5.10;2.90;;;14.10;65.80;;;;;;5011260;28;20470;-80
2023/10/31 12:32:56;;;;;;;9.23;2.43;;;14.10;13.90;;;;;;5016553;28;20446;-79
2023/10/31 12:35:27;;;;;;;3.43;1.97;;;14.00;48.10;;;;;;5016733;28;20497;-79
2023/10/31 12:37:55;;;;;;;6.87;2.30;;;14.20;43.20;;;;;;5011571;28;20481;-80
2023/10/31 12:40:22;;;;;;;7.13;2.20;;;14.20;34.50;;;;;;5014367;28;20498;-78
2023/10/31 12:42:50;;;;;;;4.50;2.20;;;14.20;20.40;;;;;;5013728;28;20452;-78
2023/10/31 12:45:19;;;;;;;3.23;1.73;;;14.10;14.30;;;;;;5017024;28;20453;-80